Indianapolis, Indiana
Current Conditions -  °F | °C
As of 4:54 AM on Sunday 26 Oct 2014 (Local Time) from KIND Reporting Station
Clear Clear  
Wind Chill:   Ceiling: Unl
Heat Index:   Visibility: 10mi
Dew Point:   Wind: 7mph
Humidity: 54%   Direction: 310°NW
Pressure: 29.99"   Gusts: NA
Location:  39.77°N, 86.15°W
Report Text: KIND 260854Z AUTO 31006KT 10SM CLR 09/00 A2999 RMK AO2 SLP152 T00890000 51006 TSNO
Loading
Personal Weather Stations






























Interactive Weather Map
Tropical Storm Tracking
New forecast layout! Learn more

10-Day Weather Forecast

Advertisements
Track Severe Weather on mobile